Time;durP1;ratioP1;P1;durP2;ratioP2;P2;SDS_P1;SDS_P2;PMS_P1;PMS_P2;Temp;Humidity;BMP_temperature;BMP_pressure;BME280_temperature;BME280_humidity;BME280_pressure;Samples;Min_cycle;Max_cycle;Signal;HPM_P1;HPM_P2
2022/09/12 00:00:47;;;;;;;6.10;4.80;;;18.80;74.90;;;-142.21;99.46;112049.66;5075683;28;20292;-84
2022/09/12 00:03:14;;;;;;;7.93;4.53;;;18.70;74.70;;;-142.21;99.59;112049.66;5075964;28;20522;-84
2022/09/12 00:05:43;;;;;;;6.00;4.93;;;18.70;74.90;;;-142.21;99.67;112049.66;5076488;28;20967;-84
2022/09/12 00:08:11;;;;;;;4.70;4.30;;;18.70;75.10;;;-142.21;99.84;112049.66;5075777;28;20477;-83
2022/09/12 00:10:40;;;;;;;6.57;4.47;;;18.70;75.20;;;-142.21;99.91;112049.66;5076361;28;20291;-84
2022/09/12 00:13:08;;;;;;;7.07;4.40;;;18.70;75.10;;;-142.21;99.61;112049.66;5076108;28;20478;-83
2022/09/12 00:15:42;;;;;;;5.50;4.97;;;18.60;74.80;;;-142.21;99.74;112049.66;5076164;28;20876;-86
2022/09/12 00:18:13;;;;;;;6.67;5.00;;;18.60;75.10;;;-142.21;99.86;112049.66;5075826;28;20224;-84
2022/09/12 00:20:43;;;;;;;5.93;4.43;;;18.60;75.00;;;-142.21;99.77;112049.66;5076087;28;20229;-85
2022/09/12 00:23:10;;;;;;;6.07;5.57;;;18.60;75.10;;;-142.21;99.96;112049.66;5075444;28;20568;-85
2022/09/12 00:25:42;;;;;;;10.07;5.50;;;18.50;75.00;;;-142.21;100.00;112049.66;5076015;28;20479;-83
2022/09/12 00:28:10;;;;;;;6.30;4.80;;;18.50;75.30;;;-142.21;100.00;112049.66;5075573;28;20482;-82
2022/09/12 00:30:46;;;;;;;7.87;5.23;;;18.50;75.00;;;-142.21;99.85;112049.66;5075889;28;20533;-84
2022/09/12 00:33:16;;;;;;;8.07;5.63;;;18.50;75.00;;;-142.21;99.96;112049.66;5074973;28;20772;-84
2022/09/12 00:35:45;;;;;;;7.13;5.23;;;18.50;75.10;;;-142.21;99.93;112049.66;5074948;28;21037;-83
2022/09/12 00:38:13;;;;;;;6.73;5.13;;;18.50;75.20;;;-142.21;99.92;112049.66;5075791;28;20448;-84
2022/09/12 00:40:41;;;;;;;7.53;5.30;;;18.50;75.10;;;-142.21;99.78;112049.66;5075905;28;20546;-84
2022/09/12 00:43:15;;;;;;;6.03;5.33;;;18.50;75.30;;;-142.21;100.00;112049.66;5076150;28;20535;-85
2022/09/12 00:45:44;;;;;;;7.10;5.10;;;18.40;75.50;;;-142.21;99.31;112049.66;5076654;28;20498;-85
2022/09/12 00:48:29;;;;;;;7.80;5.63;;;18.40;75.00;;;-142.21;99.30;112049.66;5076362;28;20484;-85
2022/09/12 00:50:57;;;;;;;5.80;5.20;;;18.40;75.00;;;-142.21;99.16;112049.66;5076282;28;20531;-86
2022/09/12 00:53:24;;;;;;;5.63;5.03;;;18.40;74.80;;;-142.21;98.91;112049.66;5076312;28;20488;-86
2022/09/12 00:55:53;;;;;;;5.67;4.70;;;18.40;74.70;;;-142.21;98.86;112049.66;5075982;28;20482;-86
2022/09/12 00:58:26;;;;;;;5.70;5.10;;;18.40;74.70;;;-142.21;99.48;112049.66;5076040;28;20451;-85
2022/09/12 01:00:57;;;;;;;7.40;5.50;;;18.30;74.80;;;-142.21;99.49;112049.66;5075897;28;20444;-85
2022/09/12 01:03:26;;;;;;;5.60;4.70;;;18.30;75.70;;;-142.21;99.61;112049.66;5075460;28;20800;-86
2022/09/12 01:06:03;;;;;;;7.23;5.10;;;18.30;75.00;;;-142.21;99.66;112049.66;5075757;28;20467;-85
2022/09/12 01:08:33;;;;;;;5.73;4.53;;;18.20;75.00;;;-142.21;99.79;112049.66;5075710;28;20489;-85
2022/09/12 01:11:01;;;;;;;6.40;4.77;;;18.20;75.00;;;-142.21;99.79;112049.66;5075276;28;20447;-85
2022/09/12 01:13:30;;;;;;;6.57;4.73;;;18.20;74.90;;;-142.21;99.30;112049.66;5074725;28;20982;-86
2022/09/12 01:15:59;;;;;;;5.77;5.17;;;18.20;75.00;;;-142.21;99.10;112049.66;5074768;28;20482;-85
2022/09/12 01:18:42;;;;;;;7.13;4.83;;;18.20;74.70;;;-142.21;98.71;112049.66;5075546;28;20510;-85
2022/09/12 01:21:23;;;;;;;6.87;4.87;;;18.20;74.80;;;-142.21;99.18;112049.66;5074432;28;20508;-84
2022/09/12 01:24:42;;;;;;;6.10;5.50;;;18.10;74.70;;;-142.21;98.83;112049.66;5074912;28;20510;-84
2022/09/12 01:27:47;;;;;;;7.90;4.63;;;18.10;74.80;;;-142.21;99.43;112049.66;5074103;28;20891;-83
2022/09/12 01:30:32;;;;;;;5.73;4.27;;;18.10;74.90;;;-142.21;99.63;112049.66;5071187;28;20471;-84
2022/09/12 01:33:41;;;;;;;7.53;4.87;;;18.00;74.90;;;-142.21;99.69;112049.66;5073815;28;20478;-84
2022/09/12 01:36:37;;;;;;;5.73;4.43;;;18.00;75.10;;;-142.21;99.84;112049.66;5074078;28;20436;-84
2022/09/12 01:39:10;;;;;;;6.10;4.80;;;18.00;75.10;;;-142.21;100.00;112049.66;5073281;28;20793;-85
2022/09/12 01:41:53;;;;;;;8.17;5.43;;;18.00;75.10;;;-142.21;100.00;112049.66;5074032;28;20490;-85
2022/09/12 01:44:36;;;;;;;6.37;4.73;;;17.90;75.20;;;-142.21;100.00;112049.66;5073481;28;20461;-83
2022/09/12 01:47:12;;;;;;;5.60;5.00;;;17.90;75.20;;;-142.21;99.68;112049.66;5073244;28;20479;-83
2022/09/12 01:49:56;;;;;;;5.40;4.57;;;17.80;75.00;;;-142.21;99.69;112049.66;5054381;28;20490;-83
2022/09/12 01:52:31;;;;;;;6.63;4.80;;;17.80;75.00;;;-142.21;99.75;112049.66;5065384;28;20437;-83
2022/09/12 01:55:10;;;;;;;7.97;5.03;;;17.80;75.10;;;-142.21;100.00;112049.66;5053922;28;20458;-83
2022/09/12 01:57:45;;;;;;;7.07;4.73;;;17.80;75.20;;;-142.21;100.00;112049.66;5069801;28;20475;-83
2022/09/12 02:00:14;;;;;;;6.37;5.40;;;17.80;75.30;;;-142.21;100.00;112049.66;5073291;28;20470;-85
2022/09/12 02:02:49;;;;;;;5.13;4.63;;;17.70;75.20;;;-142.21;99.71;112049.66;5073884;28;20524;-82
2022/09/12 02:05:26;;;;;;;6.40;4.97;;;17.80;75.30;;;-142.21;99.63;112049.66;5072981;28;20454;-83
2022/09/12 02:08:05;;;;;;;6.73;5.03;;;17.80;75.30;;;-142.21;99.93;112049.66;5074164;28;20829;-83
2022/09/12 02:10:42;;;;;;;5.67;5.07;;;17.80;75.20;;;-142.21;100.00;112049.66;5073907;28;20538;-83
2022/09/12 02:13:19;;;;;;;9.10;5.93;;;17.70;75.40;;;-142.21;99.96;112049.66;5062466;28;20494;-82
2022/09/12 02:15:53;;;;;;;6.07;5.27;;;17.70;75.40;;;-142.21;100.00;112049.66;5071401;28;20916;-81
2022/09/12 02:18:25;;;;;;;7.43;5.50;;;17.60;75.30;;;-142.21;100.00;112049.66;5072429;28;20534;-84
2022/09/12 02:20:54;;;;;;;5.67;5.10;;;17.60;75.40;;;-142.21;100.00;112049.66;5073375;28;20542;-82
2022/09/12 02:23:31;;;;;;;6.13;4.73;;;17.60;75.40;;;-142.21;100.00;112049.66;5072785;28;20962;-82
2022/09/12 02:26:08;;;;;;;7.77;4.90;;;17.60;75.40;;;-142.21;100.00;112049.66;5073047;28;20570;-83
2022/09/12 02:28:41;;;;;;;9.87;5.37;;;17.60;75.40;;;-142.21;100.00;112049.66;5073266;28;20928;-82
2022/09/12 02:31:22;;;;;;;6.03;4.77;;;17.60;75.50;;;-142.21;100.00;112049.66;5071780;28;20867;-82
2022/09/12 02:34:09;;;;;;;5.63;5.00;;;17.60;75.40;;;-142.21;100.00;112049.66;5073114;28;20866;-82
2022/09/12 02:36:53;;;;;;;7.57;5.60;;;17.50;75.60;;;-142.21;100.00;112049.66;5052012;28;20475;-82
2022/09/12 02:39:21;;;;;;;6.10;5.23;;;17.60;75.60;;;-142.21;100.00;112049.66;5068039;28;20851;-83
2022/09/12 02:41:51;;;;;;;6.37;5.23;;;17.50;75.30;;;-142.21;100.00;112049.66;5072839;28;20557;-83
2022/09/12 02:44:18;;;;;;;5.80;4.87;;;17.60;75.60;;;-142.21;100.00;112049.66;5072557;28;20863;-83
2022/09/12 02:46:54;;;;;;;8.47;5.53;;;17.50;75.50;;;-142.21;100.00;112049.66;5072996;28;20574;-83
2022/09/12 02:49:24;;;;;;;5.93;5.33;;;17.50;75.50;;;-142.21;100.00;112049.66;5072689;28;20534;-83
2022/09/12 02:51:52;;;;;;;8.97;5.37;;;17.50;75.40;;;-142.21;100.00;112049.66;5073092;28;20967;-83
2022/09/12 02:54:21;;;;;;;10.93;5.67;;;17.50;76.40;;;-142.21;100.00;112049.66;5072139;28;20960;-83
2022/09/12 02:56:48;;;;;;;5.73;5.20;;;17.40;75.50;;;-142.21;100.00;112049.66;5072704;28;20474;-83
2022/09/12 02:59:21;;;;;;;7.20;5.60;;;17.40;75.60;;;-142.21;100.00;112049.66;5072631;28;20939;-83
2022/09/12 03:02:14;;;;;;;7.33;5.60;;;17.40;75.80;;;-142.21;100.00;112049.66;5072313;28;20479;-83
2022/09/12 03:05:13;;;;;;;7.27;6.57;;;17.40;76.10;;;-142.21;100.00;112049.66;5072931;28;20466;-82
2022/09/12 03:08:17;;;;;;;8.07;6.43;;;17.40;76.20;;;-142.21;100.00;112049.66;5056173;28;20502;-84
2022/09/12 03:11:20;;;;;;;7.77;6.70;;;17.40;76.30;;;-142.21;100.00;112049.66;5062629;28;20495;-83
2022/09/12 03:14:04;;;;;;;7.23;6.50;;;17.40;76.20;;;-142.21;100.00;112049.66;5031708;28;20454;-83
2022/09/12 03:16:45;;;;;;;8.80;5.80;;;17.30;76.10;;;-142.21;100.00;112049.66;5071458;28;20474;-84
2022/09/12 03:19:25;;;;;;;9.37;5.90;;;17.40;76.20;;;-142.21;100.00;112049.66;5072335;28;20477;-83
2022/09/12 03:22:07;;;;;;;6.30;5.70;;;17.40;76.30;;;-142.21;100.00;112049.66;5072541;28;20462;-83
2022/09/12 03:24:41;;;;;;;8.07;5.80;;;17.30;76.10;;;-142.21;100.00;112049.66;5072764;28;20474;-83
2022/09/12 03:27:17;;;;;;;8.07;5.87;;;17.30;76.10;;;-142.21;100.00;112049.66;5071160;28;20576;-82
2022/09/12 03:29:48;;;;;;;6.60;5.67;;;17.30;76.20;;;-142.21;100.00;112049.66;5071675;28;20557;-83
2022/09/12 03:32:15;;;;;;;6.13;5.43;;;17.30;76.30;;;-142.21;100.00;112049.66;5071954;28;20475;-83
2022/09/12 03:34:43;;;;;;;6.43;5.53;;;17.30;76.40;;;-142.21;100.00;112049.66;5072284;28;20558;-84
2022/09/12 03:37:11;;;;;;;7.60;6.17;;;17.30;76.40;;;-142.21;100.00;112049.66;5071432;28;20443;-84
2022/09/12 03:39:39;;;;;;;6.60;5.80;;;17.30;76.50;;;-142.21;100.00;112049.66;5065565;28;20546;-83
2022/09/12 03:42:06;;;;;;;7.20;6.40;;;17.30;76.60;;;-142.21;100.00;112049.66;5071294;28;20523;-81
2022/09/12 03:44:33;;;;;;;7.20;6.27;;;17.40;76.60;;;-142.21;100.00;112049.66;5072043;28;20538;-81
2022/09/12 03:47:00;;;;;;;6.77;6.07;;;17.40;76.60;;;-142.21;100.00;112049.66;5071741;28;20511;-81
2022/09/12 03:49:28;;;;;;;7.47;6.30;;;17.40;76.40;;;-142.21;100.00;112049.66;5071443;28;20531;-82
2022/09/12 03:51:55;;;;;;;7.30;6.10;;;17.40;76.40;;;-142.21;100.00;112049.66;5072438;28;20458;-83
2022/09/12 03:54:24;;;;;;;6.87;6.17;;;17.40;76.20;;;-142.21;100.00;112049.66;5071709;28;20535;-84
2022/09/12 03:56:51;;;;;;;7.67;6.70;;;17.40;76.10;;;-142.21;100.00;112049.66;5071958;28;20967;-84
2022/09/12 03:59:19;;;;;;;7.77;6.77;;;17.30;75.90;;;-142.21;100.00;112049.66;5071436;28;20546;-84
2022/09/12 04:01:46;;;;;;;6.73;6.03;;;17.40;76.00;;;-142.21;100.00;112049.66;5072209;28;20458;-84
2022/09/12 04:04:13;;;;;;;7.57;6.70;;;17.30;75.80;;;-142.21;100.00;112049.66;5071878;28;20526;-84
2022/09/12 04:06:41;;;;;;;7.00;6.03;;;17.30;76.00;;;-142.21;100.00;112049.66;5072221;28;20505;-83
2022/09/12 04:09:09;;;;;;;8.47;6.57;;;17.30;76.20;;;-142.21;100.00;112049.66;5071103;28;20443;-83
2022/09/12 04:11:37;;;;;;;10.53;7.40;;;17.30;76.10;;;-142.21;100.00;112049.66;5071722;28;20482;-83
2022/09/12 04:14:05;;;;;;;8.40;7.07;;;17.30;76.20;;;-142.21;100.00;112049.66;5071955;28;20471;-83
2022/09/12 04:16:32;;;;;;;8.00;7.20;;;17.30;76.10;;;-142.21;100.00;112049.66;5071883;28;20622;-83
2022/09/12 04:19:00;;;;;;;7.73;6.37;;;17.30;76.10;;;-142.21;100.00;112049.66;5071762;28;20479;-83
2022/09/12 04:21:27;;;;;;;9.20;6.57;;;17.20;76.10;;;-142.21;100.00;112049.66;5071735;28;20533;-83
2022/09/12 04:23:54;;;;;;;8.20;7.03;;;17.20;75.90;;;-142.21;100.00;112049.66;5071972;28;20474;-82
2022/09/12 04:26:22;;;;;;;8.07;6.83;;;17.20;76.00;;;-142.21;100.00;112049.66;5070558;28;20568;-82
2022/09/12 04:28:56;;;;;;;9.50;6.47;;;17.20;76.10;;;-142.21;100.00;112049.66;5074567;28;20513;-82
2022/09/12 04:31:24;;;;;;;7.70;6.70;;;17.20;76.30;;;-142.21;100.00;112049.66;5074606;28;20447;-82
2022/09/12 04:33:55;;;;;;;8.10;6.73;;;17.20;76.30;;;-142.21;100.00;112049.66;5075445;28;20471;-82
2022/09/12 04:36:22;;;;;;;9.27;7.37;;;17.20;76.20;;;-142.21;100.00;112049.66;5074862;28;20463;-82
2022/09/12 04:38:51;;;;;;;7.23;6.53;;;17.10;76.00;;;-142.21;100.00;112049.66;5074718;28;20443;-82
2022/09/12 04:41:21;;;;;;;8.80;6.83;;;17.10;77.00;;;-142.21;100.00;112049.66;5074436;28;20494;-81
2022/09/12 04:43:54;;;;;;;10.17;7.03;;;17.10;76.40;;;-142.21;100.00;112049.66;5075117;28;20451;-81
2022/09/12 04:46:22;;;;;;;7.53;6.73;;;17.10;76.70;;;-142.21;100.00;112049.66;5074408;28;20467;-81
2022/09/12 04:48:50;;;;;;;9.07;7.60;;;17.00;76.50;;;-142.21;100.00;112049.66;5075282;28;20451;-81
2022/09/12 04:51:20;;;;;;;8.80;7.07;;;17.00;76.70;;;-142.21;100.00;112049.66;5074926;28;20536;-81
2022/09/12 04:53:50;;;;;;;8.07;7.30;;;17.00;76.70;;;-142.21;100.00;112049.66;5074475;28;20436;-81
2022/09/12 04:56:19;;;;;;;10.10;7.33;;;17.00;76.60;;;-142.21;100.00;112049.66;5073159;28;20451;-80
2022/09/12 04:58:49;;;;;;;10.13;7.10;;;17.00;77.20;;;-142.21;100.00;112049.66;5058085;28;20452;-81
2022/09/12 05:01:21;;;;;;;8.73;6.90;;;17.10;76.50;;;-142.21;100.00;112049.66;5058754;28;20448;-81
2022/09/12 05:03:50;;;;;;;7.90;7.10;;;17.00;76.30;;;-142.21;100.00;112049.66;5075107;28;20457;-80
2022/09/12 05:06:20;;;;;;;9.83;7.43;;;17.10;76.60;;;-142.21;100.00;112049.66;5074300;28;20471;-81
2022/09/12 05:08:48;;;;;;;11.87;7.90;;;17.10;76.70;;;-142.21;100.00;112049.66;5074544;28;20997;-81
2022/09/12 05:11:19;;;;;;;9.30;8.37;;;17.00;76.50;;;-142.21;100.00;112049.66;5073866;28;20475;-81
2022/09/12 05:13:50;;;;;;;9.20;7.30;;;17.00;76.80;;;-142.21;100.00;112049.66;5074646;28;20459;-81
2022/09/12 05:16:21;;;;;;;11.47;8.93;;;17.00;76.90;;;-142.21;100.00;112049.66;5070159;28;20960;-82
2022/09/12 05:18:49;;;;;;;9.47;7.83;;;17.00;77.00;;;-142.21;100.00;112049.66;5055202;28;20445;-81
2022/09/12 05:21:20;;;;;;;9.93;8.20;;;17.00;76.90;;;-142.21;100.00;112049.66;5055811;28;20941;-85
2022/09/12 05:23:47;;;;;;;11.00;8.17;;;17.00;77.80;;;-142.21;100.00;112049.66;5053994;28;21025;-77
2022/09/12 05:26:17;;;;;;;9.07;7.33;;;17.00;76.80;;;-142.21;100.00;112049.66;5067609;28;20448;-78
2022/09/12 05:28:45;;;;;;;10.37;7.80;;;17.10;76.90;;;-142.21;100.00;112049.66;5073833;28;20784;-78
2022/09/12 05:31:16;;;;;;;8.73;7.73;;;17.10;76.70;;;-142.21;100.00;112049.66;5073276;28;20510;-78
2022/09/12 05:33:48;;;;;;;8.77;7.30;;;17.10;76.90;;;-142.21;100.00;112049.66;5073926;28;20514;-78
2022/09/12 05:36:18;;;;;;;9.43;8.17;;;17.10;76.80;;;-142.21;100.00;112049.66;5073586;28;21022;-78
2022/09/12 05:38:46;;;;;;;11.53;7.60;;;17.10;76.70;;;-142.21;100.00;112049.66;5073235;28;20440;-78
2022/09/12 05:41:15;;;;;;;9.60;7.47;;;17.20;76.50;;;-142.21;100.00;112049.66;5072080;28;20497;-78
2022/09/12 05:43:44;;;;;;;8.20;7.17;;;17.20;76.70;;;-142.21;100.00;112049.66;5070843;28;20467;-78
2022/09/12 05:46:15;;;;;;;8.67;7.60;;;17.20;76.60;;;-142.21;100.00;112049.66;5073615;28;20451;-78
2022/09/12 05:48:47;;;;;;;9.87;7.70;;;17.20;76.80;;;-142.21;100.00;112049.66;5073384;28;20435;-77
2022/09/12 05:51:18;;;;;;;9.33;7.07;;;17.20;77.00;;;-142.21;100.00;112049.66;5072758;28;20960;-78
2022/09/12 05:53:47;;;;;;;10.13;6.63;;;17.30;77.00;;;-142.21;100.00;112049.66;5073293;28;20904;-77
2022/09/12 05:56:17;;;;;;;8.73;7.77;;;17.30;77.10;;;-142.21;100.00;112049.66;5072348;28;20493;-77
2022/09/12 05:58:47;;;;;;;9.50;7.83;;;17.40;77.20;;;-142.21;100.00;112049.66;5073142;28;20493;-78
2022/09/12 06:01:18;;;;;;;9.67;8.30;;;17.40;77.20;;;-142.21;100.00;112049.66;5072378;28;20514;-79
2022/09/12 06:03:50;;;;;;;10.13;8.00;;;17.40;77.20;;;-142.21;100.00;112049.66;5073213;28;20428;-78
2022/09/12 06:06:20;;;;;;;10.53;7.70;;;17.50;77.20;;;-142.21;100.00;112049.66;5072128;28;20452;-78
2022/09/12 06:08:50;;;;;;;10.13;7.90;;;17.50;77.00;;;-142.21;100.00;112049.66;5072877;28;20472;-77
2022/09/12 06:11:20;;;;;;;9.47;7.70;;;17.50;77.20;;;-142.21;100.00;112049.66;5072977;28;20455;-76
2022/09/12 06:13:48;;;;;;;10.70;7.67;;;17.60;77.40;;;-142.21;100.00;112049.66;5072926;28;20522;-79
2022/09/12 06:16:19;;;;;;;9.83;8.00;;;17.60;77.60;;;-142.21;100.00;112049.66;5071818;28;20447;-78
2022/09/12 06:18:50;;;;;;;9.27;7.17;;;17.60;77.70;;;-142.21;100.00;112049.66;5073368;28;20534;-77
2022/09/12 06:21:18;;;;;;;9.37;7.43;;;17.70;77.90;;;-142.21;100.00;112049.66;5071942;28;20447;-81
2022/09/12 06:23:46;;;;;;;8.33;7.13;;;17.70;77.60;;;-142.21;100.00;112049.66;5072721;28;20505;-80
2022/09/12 06:26:16;;;;;;;8.23;7.37;;;17.80;77.30;;;-142.21;100.00;112049.66;5072349;28;20455;-80
2022/09/12 06:28:46;;;;;;;8.97;7.47;;;17.90;77.40;;;-142.21;100.00;112049.66;5072167;28;20509;-81
2022/09/12 06:31:16;;;;;;;11.13;7.27;;;17.90;77.10;;;-142.21;100.00;112049.66;5072160;28;20484;-80
2022/09/12 06:33:49;;;;;;;7.50;6.80;;;18.00;77.00;;;-142.21;100.00;112049.66;5072455;28;20471;-81
2022/09/12 06:36:20;;;;;;;8.37;6.67;;;18.10;76.80;;;-142.21;100.00;112049.66;5059385;28;20470;-77
2022/09/12 06:38:48;;;;;;;9.87;7.93;;;18.20;76.80;;;-142.21;100.00;112049.66;5071769;28;21309;-80
2022/09/12 06:41:16;;;;;;;9.20;7.97;;;18.20;76.60;;;-142.21;100.00;112049.66;5070918;28;20454;-79
2022/09/12 06:43:43;;;;;;;10.40;7.43;;;18.30;76.60;;;-142.21;100.00;112049.66;5072056;28;21009;-78
2022/09/12 06:46:11;;;;;;;9.23;7.57;;;18.40;76.70;;;-142.21;100.00;112049.66;5071241;28;20952;-77
2022/09/12 06:48:39;;;;;;;9.40;7.77;;;18.40;76.90;;;-142.21;100.00;112049.66;5071920;28;20479;-78
2022/09/12 06:51:13;;;;;;;8.47;7.47;;;18.50;77.70;;;-142.21;100.00;112049.66;5071615;28;20447;-78
2022/09/12 06:53:43;;;;;;;8.97;6.53;;;18.50;77.10;;;-142.21;100.00;112049.66;5063257;28;20498;-78
2022/09/12 06:56:14;;;;;;;7.63;6.57;;;18.60;76.90;;;-142.21;100.00;112049.66;5069527;28;20479;-77
2022/09/12 06:58:42;;;;;;;8.43;7.27;;;18.70;76.60;;;-142.21;100.00;112049.66;5071606;28;20935;-79
2022/09/12 07:01:12;;;;;;;9.20;6.87;;;18.80;77.30;;;-142.21;100.00;112049.66;5070832;28;20509;-78
2022/09/12 07:03:40;;;;;;;9.07;6.60;;;18.80;75.80;;;-142.21;100.00;112049.66;5070874;28;20213;-79
2022/09/12 07:06:11;;;;;;;8.60;7.13;;;18.90;75.80;;;-142.21;100.00;112049.66;5071854;28;20432;-79
2022/09/12 07:08:40;;;;;;;9.47;6.77;;;18.90;75.70;;;-142.21;100.00;112049.66;5071087;28;20214;-78
2022/09/12 07:11:14;;;;;;;7.43;6.73;;;19.00;75.80;;;-142.21;100.00;112049.66;5056005;28;20999;-78
2022/09/12 07:13:43;;;;;;;6.97;6.27;;;19.10;76.00;;;-142.21;100.00;112049.66;5066796;28;20832;-78
2022/09/12 07:16:12;;;;;;;6.97;6.27;;;19.10;75.80;;;-142.21;100.00;112049.66;5071482;28;20439;-79
2022/09/12 07:18:40;;;;;;;6.67;6.00;;;19.20;75.70;;;-142.21;100.00;112049.66;5071168;28;20440;-78
2022/09/12 07:21:13;;;;;;;10.33;6.30;;;19.30;75.40;;;-142.21;100.00;112049.66;5071371;28;20470;-77
2022/09/12 07:23:41;;;;;;;6.47;5.70;;;19.40;75.60;;;-142.21;100.00;112049.66;5070732;28;20439;-78
2022/09/12 07:26:11;;;;;;;9.17;5.90;;;19.50;76.30;;;-142.21;100.00;112049.66;5071948;28;20447;-77
2022/09/12 07:28:39;;;;;;;7.03;5.53;;;19.60;76.20;;;-142.21;99.11;112049.66;5071175;28;21020;-77
2022/09/12 07:31:09;;;;;;;7.10;6.40;;;19.70;75.10;;;-142.21;99.07;112049.66;5071439;28;20474;-78
2022/09/12 07:33:37;;;;;;;6.63;5.83;;;19.70;74.70;;;-142.21;98.28;112049.66;5070259;28;20266;-78
2022/09/12 07:36:10;;;;;;;7.77;5.90;;;19.80;75.30;;;-142.21;98.60;112049.66;5071543;28;20626;-78
2022/09/12 07:38:38;;;;;;;5.97;5.37;;;19.90;74.60;;;-142.21;97.94;112049.66;5070688;28;20999;-77
2022/09/12 07:41:11;;;;;;;6.20;5.60;;;20.00;74.40;;;-142.21;98.53;112049.66;5071154;28;20452;-78
2022/09/12 07:43:40;;;;;;;5.90;5.30;;;20.10;74.60;;;-142.21;99.03;112049.66;5068713;28;20551;-78
2022/09/12 07:46:08;;;;;;;5.83;5.30;;;20.20;74.80;;;-142.21;99.06;112049.66;5067376;28;20205;-77
2022/09/12 07:48:36;;;;;;;6.23;5.63;;;20.30;74.60;;;-142.21;97.63;112049.66;5070192;28;20225;-77
2022/09/12 07:51:07;;;;;;;5.93;5.33;;;20.40;74.10;;;-142.21;98.57;112049.66;5071325;28;20205;-78
2022/09/12 07:53:37;;;;;;;5.67;5.07;;;20.50;74.50;;;-142.21;97.51;112049.66;5070870;28;20212;-77
2022/09/12 07:56:06;;;;;;;6.93;4.87;;;20.60;73.90;;;-142.21;97.75;112049.66;5071051;28;20620;-77
2022/09/12 07:58:36;;;;;;;5.43;4.93;;;20.60;74.00;;;-142.21;97.68;112049.66;5070811;28;20201;-77
2022/09/12 08:01:06;;;;;;;5.33;4.83;;;20.70;74.10;;;-142.21;97.36;112049.66;5071248;28;20280;-76
2022/09/12 08:03:33;;;;;;;5.27;4.83;;;20.80;74.00;;;-142.21;98.04;112049.66;5072489;28;20662;-76
2022/09/12 08:06:05;;;;;;;6.77;5.67;;;20.90;74.20;;;-142.21;97.50;112049.66;5075373;28;20646;-77
2022/09/12 08:08:33;;;;;;;4.83;4.33;;;21.00;74.30;;;-142.21;96.52;112049.66;5074784;28;20260;-76
2022/09/12 08:11:05;;;;;;;5.30;4.70;;;21.10;73.90;;;-142.21;95.88;112049.66;5075412;28;20244;-77
2022/09/12 08:13:35;;;;;;;5.37;4.87;;;21.20;73.80;;;-142.21;96.13;112049.66;5062897;28;20212;-76
2022/09/12 08:16:05;;;;;;;5.47;4.67;;;21.30;73.60;;;-142.21;96.41;112049.66;5075088;28;20576;-77
2022/09/12 08:18:33;;;;;;;5.37;4.87;;;21.40;73.60;;;-142.21;94.88;112049.66;5074783;28;20231;-76
2022/09/12 08:21:02;;;;;;;4.40;4.00;;;21.50;73.00;;;-142.21;94.71;112049.66;5074802;28;20240;-78
2022/09/12 08:23:29;;;;;;;6.17;5.07;;;21.70;72.70;;;-142.21;93.59;112049.66;5073217;28;20287;-77
2022/09/12 08:25:59;;;;;;;4.90;4.33;;;21.70;72.10;;;-142.21;93.42;112049.66;5074994;28;20636;-76
2022/09/12 08:28:28;;;;;;;4.50;4.10;;;21.90;71.90;;;-142.21;92.38;112049.66;5074011;28;20229;-78
2022/09/12 08:31:00;;;;;;;4.70;4.30;;;21.90;71.20;;;-142.21;92.15;112049.66;5055869;28;20308;-76
2022/09/12 08:33:31;;;;;;;4.90;4.40;;;22.00;71.10;;;-142.21;92.42;112049.66;5074274;28;20655;-78
2022/09/12 08:36:06;;;;;;;6.00;5.40;;;22.20;71.30;;;-142.21;91.74;112049.66;5074454;28;20443;-78
2022/09/12 08:38:33;;;;;;;4.70;4.30;;;22.30;71.00;;;-142.21;92.02;112049.66;5074380;28;20588;-76
2022/09/12 08:41:10;;;;;;;4.47;4.07;;;22.30;70.80;;;-142.21;91.45;112049.66;5074467;28;20205;-76
2022/09/12 08:44:17;;;;;;;4.87;4.47;;;22.50;70.90;;;-142.21;90.59;112049.66;5074349;28;20247;-77
2022/09/12 08:46:58;;;;;;;5.40;4.40;;;22.60;70.10;;;-142.21;89.96;112049.66;5060231;28;20205;-78
2022/09/12 08:49:32;;;;;;;4.90;4.40;;;22.70;69.90;;;-142.21;89.58;112049.66;5059181;28;20296;-77
2022/09/12 08:52:11;;;;;;;4.30;3.90;;;22.80;69.60;;;-142.21;89.06;112049.66;5069991;28;20284;-77
2022/09/12 08:54:40;;;;;;;4.97;4.37;;;23.00;69.40;;;-142.21;87.67;112049.66;5074240;28;20189;-78
2022/09/12 08:57:11;;;;;;;4.87;3.77;;;23.10;68.60;;;-142.21;87.91;112049.66;5074006;28;20209;-76
2022/09/12 08:59:44;;;;;;;4.40;4.00;;;23.20;68.60;;;-142.21;88.92;112049.66;5073882;28;20190;-75
2022/09/12 09:03:06;;;;;;;7.10;4.53;;;23.30;69.20;;;-142.21;87.63;112049.66;5073594;28;20683;-76
2022/09/12 09:05:50;;;;;;;4.03;3.70;;;23.40;68.30;;;-142.21;86.78;112049.66;5059523;28;20201;-77
2022/09/12 09:08:38;;;;;;;5.27;4.20;;;23.60;68.00;;;-142.21;85.11;112049.66;5058728;28;20685;-79
2022/09/12 09:11:26;;;;;;;4.57;4.17;;;23.70;67.00;;;-142.21;86.10;112049.66;5074047;28;20538;-76
2022/09/12 09:17:22;;;;;;;4.70;3.73;;;24.00;66.40;;;-142.21;83.88;112049.66;5064742;28;20565;-78
2022/09/12 09:19:59;;;;;;;3.57;3.27;;;24.10;66.60;;;-142.21;83.37;112049.66;5070202;28;20190;-78
2022/09/12 09:22:39;;;;;;;3.70;3.40;;;24.30;66.20;;;-142.21;83.66;112049.66;5067662;28;20266;-77
2022/09/12 09:25:19;;;;;;;5.00;3.80;;;24.50;66.20;;;-142.21;82.30;112049.66;5057496;28;20192;-79
2022/09/12 09:27:58;;;;;;;5.20;3.40;;;24.60;65.70;;;-142.21;81.08;112049.66;5073950;28;20238;-79
2022/09/12 09:30:26;;;;;;;5.17;3.60;;;24.80;65.10;;;-142.21;77.53;112049.66;5072363;28;20700;-79
2022/09/12 09:33:01;;;;;;;4.20;3.90;;;24.90;63.50;;;-142.21;74.94;112049.66;5073500;28;20205;-78
2022/09/12 09:35:44;;;;;;;3.50;3.20;;;24.90;61.90;;;-142.21;78.27;112049.66;5073338;28;20599;-79
2022/09/12 09:38:24;;;;;;;3.57;3.27;;;25.00;63.20;;;-142.21;76.75;112049.66;5073345;28;20195;-79
2022/09/12 09:41:15;;;;;;;4.37;3.40;;;25.10;62.40;;;-142.21;75.68;112049.66;5073500;28;20599;-79
2022/09/12 09:43:42;;;;;;;3.97;2.97;;;25.30;62.00;;;-142.21;78.04;112049.66;5073139;28;20609;-79
2022/09/12 09:46:10;;;;;;;3.50;3.20;;;25.40;62.30;;;-142.21;76.25;112049.66;5072937;28;20228;-79
2022/09/12 09:48:46;;;;;;;3.30;3.00;;;25.60;62.30;;;-142.21;75.82;112049.66;5072732;28;20704;-79
2022/09/12 09:51:16;;;;;;;3.50;3.20;;;25.70;61.60;;;-142.21;75.64;112049.66;5073044;28;20211;-78
2022/09/12 09:53:50;;;;;;;3.43;3.13;;;25.80;61.30;;;-142.21;73.99;112049.66;5072857;28;20201;-78
2022/09/12 09:56:29;;;;;;;3.40;3.10;;;26.00;60.70;;;-142.21;73.59;112049.66;5067806;28;20646;-76
2022/09/12 09:58:56;;;;;;;4.50;3.10;;;26.10;60.40;;;-142.21;68.94;112049.66;5039140;28;20258;-79
2022/09/12 10:01:26;;;;;;;3.97;3.40;;;26.20;59.00;;;-142.21;68.91;112049.66;5071845;28;20205;-80
2022/09/12 10:03:56;;;;;;;4.83;3.20;;;26.20;58.70;;;-142.21;69.60;112049.66;5071863;28;20198;-77
2022/09/12 10:06:33;;;;;;;3.17;2.87;;;26.30;58.80;;;-142.21;67.94;112049.66;5071626;28;20217;-78
2022/09/12 10:09:23;;;;;;;3.30;3.00;;;26.50;58.30;;;-142.21;66.53;112049.66;5072460;28;20751;-79
2022/09/12 10:11:52;;;;;;;3.20;2.90;;;26.60;57.00;;;-142.21;67.92;112049.66;5072850;28;20654;-77
2022/09/12 10:14:41;;;;;;;2.93;2.73;;;26.70;57.90;;;-142.21;68.98;112049.66;5072172;28;20613;-79
2022/09/12 10:17:28;;;;;;;4.17;2.70;;;26.80;57.70;;;-142.21;65.68;112049.66;5072496;28;20190;-78
2022/09/12 10:20:01;;;;;;;4.90;3.20;;;26.90;56.80;;;-142.21;64.89;112049.66;5072570;28;20203;-79
2022/09/12 10:22:30;;;;;;;3.10;2.80;;;27.00;57.20;;;-142.21;66.07;112049.66;5068208;28;20230;-76